Latest Weather Observations for Sydney Harbour

IDN60801

Issued at 5:35 am EST Saturday 20 September 2014 (issued every 30 minutes, with the page automatically refreshed every 10 minutes)

About weather observations | Map of weather stations | Latest weather observations for NSW | Other Formats
Station Details ID: 066196 Name: WEDDING CAKE WEST Lat: -33.84 Lon: 151.26 Height: 6.0 m
Data from the previous 72 hours. | See also: Recent months for locations in New South Wales
Date/Time
EST
Temp
°C
App
Temp
°C
Dew
Point
Rel
Hum
%
Delta-T
°C
Wind Press
QNH
hPa
Press
MSL
hPa
Rain
since 9 am
mm
Dir
 
Spd
km/h
Gust
km/h
Spd
kts
Gust
kts
20/05:30am 11.2 - - - - W 20 24 11 13 - - -
20/05:00am 11.0 - - - - W 20 24 11 13 - - -
20/04:30am 11.6 - - - - W 15 19 8 10 - - -
20/04:00am 11.6 - - - - W 15 19 8 10 - - -
20/03:30am 11.7 - - - - W 13 17 7 9 - - -
20/03:00am 11.7 - - - - W 17 20 9 11 - - -
20/02:30am 11.8 - - - - W 9 13 5 7 - - -
20/02:00am 12.0 - - - - W 9 11 5 6 - - -
20/01:30am 12.5 - - - - WSW 11 15 6 8 - - -
20/01:00am 12.7 - - - - W 9 11 5 6 - - -
20/12:30am 12.9 - - - - W 7 13 4 7 - - -
20/12:00am 13.7 - - - - W 11 13 6 7 - - -
 
Date/Time
EST
Temp
°C
App
Temp
°C
Dew
Point
Rel
Hum
%
Delta-T
°C
Wind Press
QNH
hPa
Press
MSL
hPa
Rain
since 9 am
mm
Dir
 
Spd
km/h
Gust
km/h
Spd
kts
Gust
kts
19/11:30pm 14.2 - - - - SW 6 11 3 6 - - -
19/11:00pm 14.6 - - - - S 6 7 3 4 - - -
19/10:30pm 14.8 - - - - S 7 9 4 5 - - -
19/10:00pm 15.1 - - - - S 7 9 4 5 - - -
19/09:30pm 15.2 - - - - SE 7 11 4 6 - - -
19/09:00pm 15.4 - - - - SE 7 9 4 5 - - -
19/08:30pm 15.5 - - - - SSE 9 11 5 6 - - -
19/08:00pm 15.5 - - - - SSE 9 11 5 6 - - -
19/07:30pm 15.7 - - - - SE 9 15 5 8 - - -
19/07:00pm 16.0 - - - - SE 13 15 7 8 - - -
19/06:30pm 16.0 - - - - ESE 11 17 6 9 - - -
19/06:00pm 16.2 - - - - ESE 15 17 8 9 - - -
19/05:30pm 16.4 - - - - E 15 19 8 10 - - -
19/05:00pm 16.5 - - - - E 15 19 8 10 - - -
19/04:30pm 16.7 - - - - E 17 20 9 11 - - -
19/04:00pm 16.6 - - - - E 17 20 9 11 - - -
19/03:30pm 16.7 - - - - ENE 19 22 10 12 - - -
19/03:00pm 16.6 - - - - NE 20 24 11 13 - - -
19/02:30pm 16.3 - - - - NNE 22 24 12 13 - - -
19/02:00pm 16.5 - - - - NNE 17 20 9 11 - - -
19/01:30pm 16.2 - - - - NE 17 20 9 11 - - -
19/01:00pm 17.0 - - - - N 13 20 7 11 - - -
19/12:30pm 16.9 - - - - SW 9 17 5 9 - - -
19/12:00pm 16.4 - - - - SW 9 15 5 8 - - -
19/11:30am 15.8 - - - - SSW 15 17 8 9 - - -
19/11:00am 15.2 - - - - SW 15 17 8 9 - - -
19/10:30am 14.6 - - - - SW 15 17 8 9 - - -
19/10:00am 14.0 - - - - WSW 19 20 10 11 - - -
19/09:30am 13.7 - - - - WSW 13 15 7 8 - - -
19/09:00am 13.0 - - - - W 11 17 6 9 - - -
19/08:30am 12.0 - - - - W 20 26 11 14 - - -
19/08:00am 11.6 - - - - W 26 32 14 17 - - -
19/07:30am 11.1 - - - - W 22 28 12 15 - - -
19/07:00am 10.6 - - - - W 22 26 12 14 - - -
19/06:30am 10.6 - - - - W 24 30 13 16 - - -
19/06:00am 11.0 - - - - W 17 22 9 12 - - -
19/05:30am 11.2 - - - - WSW 20 26 11 14 - - -
19/05:00am 11.0 - - - - W 19 26 10 14 - - -
19/04:30am 11.2 - - - - W 19 22 10 12 - - -
19/04:00am 11.5 - - - - W 20 26 11 14 - - -
19/03:30am 11.6 - - - - W 20 26 11 14 - - -
19/03:00am 12.0 - - - - WSW 19 22 10 12 - - -
19/02:30am 12.6 - - - - WSW 17 20 9 11 - - -
19/02:00am 12.7 - - - - W 17 20 9 11 - - -
19/01:30am 13.0 - - - - W 17 20 9 11 - - -
19/01:00am 13.3 - - - - W 13 15 7 8 - - -
19/12:30am 13.7 - - - - W 15 19 8 10 - - -
19/12:00am 13.9 - - - - W 13 20 7 11 - - -
 
Date/Time
EST
Temp
°C
App
Temp
°C
Dew
Point
Rel
Hum
%
Delta-T
°C
Wind Press
QNH
hPa
Press
MSL
hPa
Rain
since 9 am
mm
Dir
 
Spd
km/h
Gust
km/h
Spd
kts
Gust
kts
18/11:30pm 14.1 - - - - W 13 15 7 8 - - -
18/11:00pm 14.1 - - - - W 15 17 8 9 - - -
18/10:30pm 14.6 - - - - W 15 20 8 11 - - -
18/10:00pm 14.7 - - - - W 17 24 9 13 - - -
18/09:30pm 15.0 - - - - W 20 28 11 15 - - -
18/09:00pm 15.2 - - - - W 22 28 12 15 - - -
18/08:30pm 15.6 - - - - SW 15 19 8 10 - - -
18/08:00pm 15.6 - - - - SSW 15 17 8 9 - - -
18/07:30pm 15.5 - - - - S 15 19 8 10 - - -
18/07:00pm 15.4 - - - - S 17 20 9 11 - - -
18/06:30pm 15.4 - - - - SSE 19 24 10 13 - - -
18/06:00pm 15.3 - - - - S 20 26 11 14 - - -
18/05:30pm 15.3 - - - - S 19 28 10 15 - - -
18/05:00pm 15.9 - - - - S 20 24 11 13 - - -
18/04:30pm 16.0 - - - - SE 24 33 13 18 - - -
18/04:00pm 16.1 - - - - SSE 26 33 14 18 - - -
18/03:30pm 15.7 - - - - SSE 28 37 15 20 - - -
18/03:00pm 16.3 - - - - S 26 33 14 18 - - -
18/02:30pm 16.1 - - - - SSE 26 33 14 18 - - -
18/02:00pm 16.0 - - - - SSE 24 32 13 17 - - -
18/01:30pm 16.0 - - - - SSE 24 32 13 17 - - -
18/01:00pm 15.7 - - - - SE 22 32 12 17 - - -
18/12:30pm 15.9 - - - - SSE 20 28 11 15 - - -
18/12:00pm 15.9 - - - - SE 22 32 12 17 - - -
18/11:30am 15.7 - - - - S 24 32 13 17 - - -
18/11:00am 15.5 - - - - SSW 24 35 13 19 - - -
18/10:30am 15.2 - - - - SSW 22 35 12 19 - - -
18/10:00am 14.8 - - - - SW 22 32 12 17 - - -
18/09:30am 14.3 - - - - WSW 24 32 13 17 - - -
18/09:00am 14.0 - - - - WSW 28 37 15 20 - - -
18/08:30am 13.7 - - - - WSW 33 46 18 25 - - -
18/08:00am 13.8 - - - - WSW 33 43 18 23 - - -
18/07:49am 13.7 - - - - WSW 32 50 17 27 - - -
18/07:30am 13.9 - - - - WSW 30 43 16 23 - - -
18/07:04am 13.9 - - - - WSW 32 50 17 27 - - -
18/07:00am 13.9 - - - - WSW 32 48 17 26 - - -
18/06:30am 14.0 - - - - WSW 35 46 19 25 - - -
18/06:00am 14.1 - - - - SW 28 33 15 18 - - -
18/05:30am 13.9 - - - - WSW 17 24 9 13 - - -
18/05:00am 14.2 - - - - WSW 28 35 15 19 - - -
18/04:30am 14.3 - - - - WSW 32 39 17 21 - - -
18/04:00am 14.6 - - - - SW 35 46 19 25 - - -
18/03:30am 14.8 - - - - SW 32 41 17 22 - - -
18/03:00am 14.5 - - - - SW 28 39 15 21 - - -
18/02:30am 14.7 - - - - SW 26 30 14 16 - - -
18/02:00am 14.7 - - - - W 17 24 9 13 - - -
18/01:30am 14.9 - - - - W 20 26 11 14 - - -
18/01:00am 15.1 - - - - W 20 28 11 15 - - -
18/12:30am 15.5 - - - - W 24 35 13 19 - - -
18/12:00am 15.7 - - - - W 26 35 14 19 - - -
 
Date/Time
EST
Temp
°C
App
Temp
°C
Dew
Point
Rel
Hum
%
Delta-T
°C
Wind Press
QNH
hPa
Press
MSL
hPa
Rain
since 9 am
mm
Dir
 
Spd
km/h
Gust
km/h
Spd
kts
Gust
kts
17/11:30pm 16.0 - - - - W 30 41 16 22 - - -
17/11:00pm 16.3 - - - - W 28 37 15 20 - - -
17/10:30pm 16.6 - - - - W 32 39 17 21 - - -
17/10:00pm 16.7 - - - - WSW 24 33 13 18 - - -
17/09:30pm 16.9 - - - - W 20 30 11 16 - - -
17/09:00pm 17.0 - - - - W 17 24 9 13 - - -
17/08:30pm 17.4 - - - - W 17 20 9 11 - - -
17/08:00pm 17.6 - - - - W 15 20 8 11 - - -
17/07:30pm 17.9 - - - - WSW 22 32 12 17 - - -
17/07:00pm 18.3 - - - - WSW 22 35 12 19 - - -
17/06:30pm 18.5 - - - - WSW 28 43 15 23 - - -
17/06:00pm 18.9 - - - - W 26 41 14 22 - - -
17/05:30pm 19.4 - - - - W 30 41 16 22 - - -
17/05:00pm 19.6 - - - - W 30 41 16 22 - - -
17/04:50pm 19.6 - - - - WSW 28 46 15 25 - - -
17/04:30pm 19.7 - - - - W 28 35 15 19 - - -
17/04:00pm 19.9 - - - - W 30 48 16 26 - - -
17/03:56pm 19.9 - - - - W 30 48 16 26 - - -
17/03:53pm 19.9 - - - - W 37 48 20 26 - - -
17/03:30pm 19.8 - - - - WSW 33 54 18 29 - - -
17/03:08pm 19.6 - - - - W 28 46 15 25 - - -
17/03:00pm 19.8 - - - - W 33 46 18 25 - - -
17/02:30pm 19.7 - - - - WSW 33 56 18 30 - - -
17/02:28pm 19.7 - - - - SW 35 56 19 30 - - -
17/02:00pm 19.8 - - - - WSW 24 30 13 16 - - -
17/01:30pm 19.6 - - - - WSW 30 39 16 21 - - -
17/01:00pm 19.2 - - - - W 30 41 16 22 - - -
17/12:30pm 18.9 - - - - WSW 28 39 15 21 - - -
17/12:00pm 18.8 - - - - WSW 26 41 14 22 - - -
17/11:30am 18.6 - - - - W 28 43 15 23 - - -
17/11:00am 18.2 - - - - W 39 52 21 28 - - -
17/10:30am 17.8 - - - - WSW 33 44 18 24 - - -
17/10:00am 17.3 - - - - WSW 43 61 23 33 - - -
17/09:41am 17.2 - - - - WSW 41 59 22 32 - - -
17/09:30am 17.1 - - - - W 41 54 22 29 - - -
17/09:00am 16.8 - - - - W 39 57 21 31 - - -
17/08:51am 16.7 - - - - W 39 57 21 31 - - -
17/08:30am 16.5 - - - - W 39 54 21 29 - - -
17/08:16am 16.4 - - - - W 39 57 21 31 - - -
17/08:00am 16.4 - - - - W 35 44 19 24 - - -
17/07:30am 15.9 - - - - W 30 43 16 23 - - -
17/07:00am 15.8 - - - - W 32 41 17 22 - - -
17/06:30am 15.9 - - - - W 32 41 17 22 - - -
17/06:00am 16.1 - - - - W 24 32 13 17 - - -

Other Formats:

Comma delimited format used in spreadsheet applications
http://www.bom.gov.au/fwo/IDN60801/IDN60801.95766.axf

JavaScript Object Notation format (JSON) in row-major order
http://www.bom.gov.au/fwo/IDN60801/IDN60801.95766.json